createdAt,value
2015-08-16T00:00:57.958Z,39442
2015-08-16T00:01:59.959Z,42597
2015-08-16T00:03:02.571Z,27477
2015-08-16T00:04:00.323Z,12927
2015-08-16T00:05:05.059Z,12417
2015-08-16T00:06:02.108Z,19357
2015-08-16T00:07:03.548Z,19062
2015-08-16T00:08:03.846Z,40442
2015-08-16T00:09:05.629Z,39252
2015-08-16T00:10:05.944Z,35442
2015-08-16T00:11:06.868Z,24822
2015-08-16T00:12:11.886Z,17822
2015-08-16T00:13:09.090Z,17677
2015-08-16T00:14:09.154Z,18722
2015-08-16T00:15:10.579Z,7617
2015-08-16T00:16:11.519Z,9372
2015-08-16T00:17:13.693Z,5357
2015-08-16T00:18:13.632Z,2442
2015-08-16T00:19:13.993Z,5602
2015-08-16T00:20:15.058Z,6162
2015-08-16T00:21:22.387Z,10092
2015-08-16T00:22:18.139Z,9832
2015-08-16T00:23:18.954Z,12387
2015-08-16T00:24:18.394Z,22347
2015-08-16T00:26:22.085Z,5442
2015-08-16T00:27:20.649Z,7062
2015-08-16T00:28:23.448Z,8642
2015-08-16T00:29:22.450Z,8522
2015-08-16T00:30:23.546Z,8507
2015-08-16T00:31:24.234Z,10232
2015-08-16T00:32:25.112Z,9847
2015-08-16T00:33:25.989Z,8167
2015-08-16T00:34:26.818Z,10027
2015-08-16T00:35:27.727Z,7842
2015-08-16T00:36:30.697Z,4272
2015-08-16T00:37:29.560Z,10272
2015-08-16T00:38:30.905Z,6182
2015-08-16T00:39:31.297Z,20572
2015-08-16T00:40:32.222Z,16027
2015-08-16T00:41:33.457Z,20992
2015-08-16T00:42:33.944Z,29112
2015-08-16T00:43:34.805Z,23412
2015-08-16T00:44:35.760Z,12562
2015-08-16T00:45:36.653Z,2492
2015-08-16T00:46:37.795Z,2672
2015-08-16T00:47:38.344Z,2397
2015-08-16T00:48:39.331Z,3652
2015-08-16T00:49:40.130Z,1172
2015-08-16T00:50:41.007Z,4542
2015-08-16T00:51:41.884Z,4537
2015-08-16T00:52:42.760Z,1457
2015-08-16T00:53:43.716Z,27582
2015-08-16T00:54:44.608Z,57582
2015-08-16T00:55:45.407Z,55342
2015-08-16T00:56:46.314Z,40352
2015-08-16T00:57:47.208Z,25102
2015-08-16T00:58:48.069Z,9852
2015-08-16T00:59:48.961Z,1822
2015-08-16T01:00:49.916Z,2602
2015-08-16T01:01:50.778Z,2562
2015-08-16T01:02:51.608Z,5492
2015-08-16T01:03:52.469Z,5522
2015-08-16T01:04:53.674Z,2652
2015-08-16T01:05:54.239Z,5652
2015-08-16T01:06:55.163Z,982
2015-08-16T01:07:56.040Z,1097
2015-08-16T01:08:56.932Z,1942
2015-08-16T01:09:57.778Z,2802
2015-08-16T01:10:58.685Z,4237
2015-08-16T01:11:59.547Z,1212
2015-08-16T01:13:00.440Z,4427
2015-08-16T01:14:01.317Z,1652
2015-08-16T01:15:02.210Z,3987
2015-08-16T01:16:03.180Z,492
2015-08-16T01:17:03.994Z,3332
2015-08-16T01:18:04.841Z,2162
2015-08-16T01:19:06.029Z,1117
2015-08-16T01:20:06.641Z,4807
2015-08-16T01:21:07.502Z,26387
2015-08-16T01:22:08.411Z,40482
2015-08-16T01:23:09.303Z,68282
2015-08-16T01:24:10.196Z,71982
2015-08-16T01:25:11.338Z,77912
2015-08-16T01:26:11.950Z,70662
2015-08-16T01:27:12.811Z,73532
2015-08-16T01:28:13.719Z,58527
2015-08-16T01:29:16.518Z,49197
2015-08-16T01:30:15.457Z,38777
2015-08-16T01:31:16.459Z,25692
2015-08-16T01:32:17.243Z,26562
2015-08-16T01:33:18.104Z,19127
2015-08-16T01:34:18.996Z,8027
2015-08-16T01:35:19.795Z,6432
2015-08-16T01:36:20.797Z,3162
2015-08-16T01:37:21.658Z,452
2015-08-16T01:38:22.552Z,1137
2015-08-16T01:39:23.412Z,1067
2015-08-16T01:40:24.289Z,2532
2015-08-16T01:41:25.166Z,4092
2015-08-16T01:42:26.074Z,1667
2015-08-16T01:43:26.951Z,3122
2015-08-16T01:44:27.875Z,2322
2015-08-16T01:45:28.690Z,787
2015-08-16T01:46:29.645Z,547
2015-08-16T01:47:30.491Z,3172
2015-08-16T01:48:31.368Z,1712
2015-08-16T01:49:32.228Z,4462
2015-08-16T01:50:33.137Z,952
2015-08-16T01:51:34.045Z,612
2015-08-16T01:52:36.829Z,437
2015-08-16T01:53:35.767Z,6032
2015-08-16T01:54:36.675Z,2137
2015-08-16T01:55:37.537Z,3697
2015-08-16T01:56:38.429Z,3802
2015-08-16T01:57:39.369Z,2152
2015-08-16T01:58:40.215Z,3677
2015-08-16T01:59:41.076Z,2817
2015-08-16T02:00:41.953Z,3697
2015-08-16T02:01:43.049Z,1687
2015-08-16T02:02:43.691Z,367
2015-08-16T02:03:44.631Z,257
2015-08-16T02:04:45.555Z,872
2015-08-16T02:05:46.416Z,2637
2015-08-16T02:06:47.246Z,457
2015-08-16T02:07:48.139Z,1247
2015-08-16T02:08:50.921Z,1097
2015-08-16T02:09:49.909Z,407
2015-08-16T02:10:51.003Z,2867
2015-08-16T02:11:51.678Z,2927
2015-08-16T02:12:52.586Z,447
2015-08-16T02:13:53.495Z,142
2015-08-16T02:14:54.356Z,537
2015-08-16T02:15:55.201Z,4412
2015-08-16T02:16:56.297Z,2907
2015-08-16T02:17:57.252Z,1327
2015-08-16T02:18:58.113Z,1112
2015-08-16T02:19:59.146Z,3162
2015-08-16T02:21:00.070Z,4617
2015-08-16T02:22:00.932Z,2787
2015-08-16T02:23:02.012Z,2497
2015-08-16T02:24:02.654Z,2932
2015-08-16T02:25:05.469Z,2922
2015-08-16T02:26:04.299Z,1382
2015-08-16T02:27:06.567Z,3242
2015-08-16T02:28:06.194Z,479
2015-08-16T02:29:07.477Z,589
2015-08-16T02:30:08.213Z,3434
2015-08-16T02:31:09.200Z,489
2015-08-16T02:32:12.483Z,2039
2015-08-16T02:33:10.484Z,3474
2015-08-16T02:34:13.002Z,944
2015-08-16T02:35:14.019Z,1359
2015-08-16T02:36:13.663Z,329
2015-08-16T02:37:14.243Z,2434
2015-08-16T02:38:15.775Z,3554
2015-08-16T02:39:17.011Z,4059
2015-08-16T02:40:17.670Z,4259
2015-08-16T02:42:22.689Z,1299
2015-08-16T02:43:19.457Z,2009
2015-08-16T02:44:19.975Z,4594
2015-08-16T02:45:20.820Z,1014
2015-08-16T02:46:21.760Z,4289
2015-08-16T02:47:22.574Z,874
2015-08-16T02:48:23.467Z,344
2015-08-16T02:49:24.360Z,6494
2015-08-16T02:50:25.282Z,1499
2015-08-16T02:51:26.159Z,2194
2015-08-16T02:52:27.021Z,2179
2015-08-16T02:53:27.914Z,3704
2015-08-16T02:54:28.853Z,1924
2015-08-16T02:55:29.825Z,7224
2015-08-16T02:56:30.701Z,6034
2015-08-16T02:57:31.531Z,3794
2015-08-16T02:58:32.565Z,2639
2015-08-16T02:59:33.254Z,1004
2015-08-16T03:01:35.258Z,3189
2015-08-16T03:02:36.010Z,1949
2015-08-16T03:03:38.777Z,2744
2015-08-16T03:04:37.685Z,1749
2015-08-16T03:05:38.641Z,1504
2015-08-16T03:06:39.502Z,8334
2015-08-16T03:07:40.645Z,2004
2015-08-16T03:08:41.209Z,9044
2015-08-16T03:10:43.103Z,4964
2015-08-16T03:11:43.934Z,8309
2015-08-16T03:12:44.716Z,6309
2015-08-16T03:13:46.250Z,1174
2015-08-16T03:14:46.518Z,1349
2015-08-16T03:15:47.270Z,1544
2015-08-16T03:16:48.177Z,5094
2015-08-16T03:17:49.164Z,2144
2015-08-16T03:18:49.978Z,5754
2015-08-16T03:19:50.871Z,5714
2015-08-16T03:20:52.716Z,899
2015-08-16T03:21:53.078Z,7504
2015-08-16T03:22:53.939Z,4444
2015-08-16T03:23:54.737Z,5609
2015-08-16T03:24:55.787Z,3009
2015-08-16T03:25:56.569Z,1789
2015-08-16T03:26:57.556Z,2109
2015-08-16T03:27:58.324Z,3804
2015-08-16T03:28:59.231Z,4334
2015-08-16T03:29:59.984Z,1014
2015-08-16T03:31:01.143Z,3229
2015-08-16T03:32:01.926Z,2359
2015-08-16T03:33:02.694Z,1839
2015-08-16T03:34:03.586Z,5979
2015-08-16T03:35:04.634Z,3644
2015-08-16T03:36:05.167Z,2864
2015-08-16T03:37:06.404Z,5444
2015-08-16T03:38:07.171Z,5314
2015-08-16T03:39:08.361Z,1919
2015-08-16T03:40:08.847Z,3284
2015-08-16T03:41:09.896Z,4364
2015-08-16T03:42:10.695Z,3969
2015-08-16T03:43:11.666Z,1589
2015-08-16T03:44:13.604Z,3714
2015-08-16T03:45:13.513Z,1109
2015-08-16T03:46:14.203Z,989
2015-08-16T03:47:15.033Z,2984
2015-08-16T03:48:16.066Z,1064
2015-08-16T03:49:16.818Z,2554
2015-08-16T03:50:17.679Z,4359
2015-08-16T03:51:18.571Z,914
2015-08-16T03:52:19.495Z,734
2015-08-16T03:53:20.279Z,3824
2015-08-16T03:54:21.452Z,569
2015-08-16T03:55:22.173Z,3159
2015-08-16T03:56:23.113Z,2059
2015-08-16T03:57:24.021Z,389
2015-08-16T03:58:24.820Z,7349
2015-08-16T03:59:26.869Z,2169
2015-08-16T04:00:26.574Z,1804
2015-08-16T04:01:27.498Z,1394
2015-08-16T04:02:28.156Z,4164
2015-08-16T04:03:29.392Z,4904
2015-08-16T04:04:30.082Z,2049
2015-08-16T04:05:30.942Z,4664
2015-08-16T04:06:32.320Z,1254
2015-08-16T04:07:32.900Z,1474
2015-08-16T04:08:33.808Z,1589
2015-08-16T04:09:34.404Z,364
2015-08-16T04:10:35.468Z,659
2015-08-16T04:11:36.360Z,2384
2015-08-16T04:12:37.112Z,3424
2015-08-16T04:13:37.912Z,1979
2015-08-16T04:14:40.257Z,4279
2015-08-16T04:15:39.790Z,5464
2015-08-16T04:16:40.714Z,999
2015-08-16T04:17:41.622Z,1144
2015-08-16T04:18:42.546Z,3369
2015-08-16T04:19:43.204Z,1389
2015-08-16T04:20:44.191Z,2239
2015-08-16T04:21:45.068Z,6294
2015-08-16T04:22:46.101Z,3779
2015-08-16T04:23:46.884Z,5899
2015-08-16T04:25:48.731Z,1029
2015-08-16T04:26:49.717Z,6604
2015-08-16T04:27:50.486Z,12619
2015-08-16T04:28:51.300Z,10189
2015-08-16T04:29:53.474Z,20879
2015-08-16T04:30:53.085Z,27709
2015-08-16T04:31:54.009Z,17849
2015-08-16T04:32:54.840Z,23274
2015-08-16T04:33:55.747Z,24464
2015-08-16T04:34:56.608Z,19454
2015-08-16T04:35:57.408Z,20024
2015-08-16T04:36:58.456Z,16934
2015-08-16T04:37:59.255Z,12334
2015-08-16T04:39:00.116Z,9954
2015-08-16T04:40:01.150Z,7594
2015-08-16T04:41:01.933Z,11124
2015-08-16T04:42:02.794Z,9224
2015-08-16T04:43:03.718Z,4279
2015-08-16T04:44:04.611Z,1149
2015-08-16T04:45:06.707Z,324
2015-08-16T04:46:06.349Z,2174
2015-08-16T04:47:07.178Z,11034
2015-08-16T04:48:08.119Z,3474
2015-08-16T04:49:08.980Z,7089
2015-08-16T04:50:09.888Z,3874
2015-08-16T04:51:10.796Z,4379
2015-08-16T04:52:11.674Z,3844
2015-08-16T04:53:12.440Z,13064
2015-08-16T04:54:13.380Z,12454
2015-08-16T04:55:14.351Z,10854
2015-08-16T04:56:15.275Z,8509
2015-08-16T04:57:15.651Z,1549
2015-08-16T04:58:16.560Z,3374
2015-08-16T04:59:17.343Z,1974
2015-08-16T05:00:19.532Z,2234
2015-08-16T05:01:19.206Z,1434
2015-08-16T05:02:20.115Z,3784
2015-08-16T05:03:21.007Z,3939
2015-08-16T05:04:21.884Z,4359
2015-08-16T05:05:22.729Z,3599
2015-08-16T05:06:23.622Z,1169
2015-08-16T05:07:24.500Z,1099
2015-08-16T05:08:25.377Z,814
2015-08-16T05:09:26.299Z,2959
2015-08-16T05:10:27.176Z,449
2015-08-16T05:11:28.100Z,419
2015-08-16T05:12:28.931Z,3784
2015-08-16T05:13:29.807Z,629
2015-08-16T05:14:30.716Z,1594
2015-08-16T05:15:32.750Z,1654
2015-08-16T05:17:33.362Z,4299
2015-08-16T05:18:34.287Z,4394
2015-08-16T05:19:35.148Z,3559
2015-08-16T05:20:36.009Z,1529
2015-08-16T05:21:38.792Z,3374
2015-08-16T05:22:37.779Z,4144
2015-08-16T05:23:38.656Z,2554
2015-08-16T05:24:39.547Z,1164
2015-08-16T05:25:40.472Z,2224
2015-08-16T05:26:41.365Z,609
2015-08-16T05:27:42.178Z,1769
2015-08-16T05:28:43.071Z,2199
2015-08-16T05:29:43.979Z,2429
2015-08-16T05:30:44.904Z,5339
2015-08-16T05:31:45.655Z,1234
2015-08-16T05:32:46.694Z,1344
2015-08-16T05:33:47.611Z,4559
2015-08-16T05:34:48.512Z,999
2015-08-16T05:35:49.430Z,974
2015-08-16T05:36:50.363Z,3469
2015-08-16T05:37:51.254Z,2459
2015-08-16T05:38:52.146Z,4519
2015-08-16T05:39:53.068Z,729
2015-08-16T05:40:54.006Z,3009
2015-08-16T05:41:54.803Z,1144
2015-08-16T05:42:55.779Z,2279
2015-08-16T05:43:56.630Z,624
2015-08-16T05:44:57.527Z,2134
2015-08-16T05:45:59.534Z,409
2015-08-16T05:46:59.306Z,2374
2015-08-16T05:48:08.155Z,1642
2015-08-16T05:49:03.002Z,2082
2015-08-16T05:50:01.939Z,1452
2015-08-16T05:51:02.866Z,652
2015-08-16T05:52:03.729Z,2592
2015-08-16T05:53:04.607Z,2272
2015-08-16T05:54:05.484Z,4312
2015-08-16T05:55:06.395Z,627
2015-08-16T05:56:07.287Z,1782
2015-08-16T05:57:08.165Z,3807
2015-08-16T05:58:09.042Z,2827
2015-08-16T05:59:11.967Z,5477
2015-08-16T06:00:10.797Z,2172
2015-08-16T06:01:12.863Z,822
2015-08-16T06:02:12.616Z,257
2015-08-16T06:03:13.507Z,882
2015-08-16T06:04:14.385Z,257
2015-08-16T06:05:15.247Z,3292
2015-08-16T06:06:16.139Z,592
2015-08-16T06:07:17.016Z,207
2015-08-16T06:08:17.893Z,1
2015-08-16T06:09:18.785Z,1
2015-08-16T06:10:19.693Z,1
2015-08-16T06:11:20.570Z,1
2015-08-16T06:12:21.432Z,1
2015-08-16T06:13:22.356Z,381
2015-08-16T06:14:23.217Z,76
2015-08-16T06:15:24.126Z,1
2015-08-16T06:16:26.190Z,1
2015-08-16T06:17:25.879Z,1
2015-08-16T06:18:26.803Z,1
2015-08-16T06:19:27.633Z,526
2015-08-16T06:20:28.510Z,181
2015-08-16T06:21:29.371Z,1
2015-08-16T06:22:30.295Z,1
2015-08-16T06:23:31.188Z,1
2015-08-16T06:24:32.112Z,1
2015-08-16T06:25:32.989Z,1
2015-08-16T06:26:33.835Z,1
2015-08-16T06:27:34.727Z,1151
2015-08-16T06:28:35.620Z,361
2015-08-16T06:29:36.528Z,56
2015-08-16T06:30:37.374Z,1
2015-08-16T06:31:40.485Z,2861
2015-08-16T06:32:42.565Z,471
2015-08-16T06:33:42.333Z,166
2015-08-16T06:34:40.944Z,1
2015-08-16T06:35:41.806Z,1
2015-08-16T06:36:42.698Z,1
2015-08-16T06:37:43.560Z,1
2015-08-16T06:38:44.484Z,1
2015-08-16T06:39:46.064Z,1
2015-08-16T06:40:47.096Z,1
2015-08-16T06:41:47.333Z,636
2015-08-16T06:42:48.210Z,211
2015-08-16T06:43:50.040Z,1
2015-08-16T06:44:49.792Z,1
2015-08-16T06:45:50.669Z,1
2015-08-16T06:46:52.843Z,1266
2015-08-16T06:47:52.486Z,331
2015-08-16T06:48:53.315Z,411
2015-08-16T06:49:54.208Z,311
2015-08-16T06:50:55.132Z,1506
2015-08-16T06:51:56.024Z,356
2015-08-16T06:52:56.901Z,51
2015-08-16T06:53:57.717Z,1
2015-08-16T06:54:58.686Z,1
2015-08-16T06:55:59.564Z,1601
2015-08-16T06:57:00.440Z,356
2015-08-16T06:58:01.317Z,51
2015-08-16T06:59:02.132Z,1
2015-08-16T07:00:03.103Z,1
2015-08-16T07:01:03.995Z,1
2015-08-16T07:02:06.029Z,1
2015-08-16T07:03:05.796Z,1
2015-08-16T07:04:06.658Z,1
2015-08-16T07:05:07.519Z,1
2015-08-16T07:06:08.412Z,1
2015-08-16T07:07:09.445Z,1
2015-08-16T07:08:10.197Z,1
2015-08-16T07:09:11.121Z,1
2015-08-16T07:10:11.997Z,1
2015-08-16T07:11:12.858Z,1
2015-08-16T07:12:13.752Z,1
2015-08-16T07:13:14.628Z,1156
2015-08-16T07:14:15.537Z,316
2015-08-16T07:15:16.398Z,2366
2015-08-16T07:16:17.321Z,3706
2015-08-16T07:17:19.355Z,476
2015-08-16T07:18:19.106Z,171
2015-08-16T07:19:19.952Z,216
2015-08-16T07:20:20.860Z,776
2015-08-16T07:21:21.783Z,231
2015-08-16T07:22:22.677Z,2401
2015-08-16T07:23:23.570Z,591
2015-08-16T07:24:25.759Z,471
2015-08-16T07:25:30.308Z,541
2015-08-16T07:26:26.169Z,1216
2015-08-16T07:27:29.296Z,351
2015-08-16T07:28:28.032Z,296
2015-08-16T07:29:28.925Z,206
2015-08-16T07:30:30.989Z,1
2015-08-16T07:31:30.631Z,1
2015-08-16T07:32:31.556Z,1
2015-08-16T07:33:32.370Z,1
2015-08-16T07:34:33.325Z,1
2015-08-16T07:35:34.186Z,8001
2015-08-16T07:36:35.096Z,3071
2015-08-16T07:37:35.972Z,981
2015-08-16T07:38:36.849Z,276
2015-08-16T07:39:37.741Z,2066
2015-08-16T07:40:38.728Z,396
2015-08-16T07:41:39.526Z,1106
2015-08-16T07:42:40.419Z,666
2015-08-16T07:43:41.327Z,221
2015-08-16T07:44:42.251Z,721
2015-08-16T07:45:48.113Z,236
2015-08-16T07:47:44.910Z,1
2015-08-16T07:48:45.741Z,1031
2015-08-16T07:49:46.618Z,286
2015-08-16T07:50:47.541Z,1
2015-08-16T07:51:48.466Z,1
2015-08-16T07:52:49.281Z,1
2015-08-16T07:53:50.189Z,1
2015-08-16T07:54:51.065Z,1
2015-08-16T07:55:51.927Z,1
2015-08-16T07:56:52.820Z,1
2015-08-16T07:57:53.727Z,1
2015-08-16T07:58:54.745Z,2001
2015-08-16T07:59:55.559Z,426
2015-08-16T08:00:56.390Z,121
2015-08-16T08:01:57.282Z,1
2015-08-16T08:02:58.269Z,1
2015-08-16T08:03:59.177Z,1
2015-08-16T08:05:00.852Z,1
2015-08-16T08:06:00.821Z,1
2015-08-16T08:07:01.903Z,1
2015-08-16T08:08:02.638Z,1
2015-08-16T08:09:03.499Z,1
2015-08-16T08:10:04.454Z,1
2015-08-16T08:11:05.410Z,1
2015-08-16T08:12:06.224Z,1
2015-08-16T08:13:07.085Z,1
2015-08-16T08:14:08.056Z,1371
2015-08-16T08:15:08.886Z,356
2015-08-16T08:16:09.764Z,56
2015-08-16T08:17:10.765Z,1
2015-08-16T08:18:11.627Z,1
2015-08-16T08:19:12.457Z,1
2015-08-16T08:20:13.412Z,1
2015-08-16T08:21:14.414Z,1
2015-08-16T08:22:15.322Z,1
2015-08-16T08:23:16.121Z,1
2015-08-16T08:24:16.889Z,1
2015-08-16T08:25:20.797Z,1
2015-08-16T08:26:18.690Z,1
2015-08-16T08:27:19.613Z,1
2015-08-16T08:28:20.786Z,1
2015-08-16T08:29:21.414Z,1
2015-08-16T08:30:22.463Z,1
2015-08-16T08:31:23.153Z,1
2015-08-16T08:32:24.655Z,1
2015-08-16T08:33:25.204Z,1
2015-08-16T08:34:29.971Z,1
2015-08-16T08:35:29.239Z,1
2015-08-16T08:36:27.975Z,1
2015-08-16T08:37:28.524Z,1
2015-08-16T08:38:29.588Z,1
2015-08-16T08:39:30.341Z,1
2015-08-16T08:40:34.171Z,1
2015-08-16T08:41:32.734Z,1
2015-08-16T08:42:35.877Z,1
2015-08-16T08:43:34.239Z,1
2015-08-16T08:44:34.865Z,1
2015-08-16T08:45:35.664Z,1
2015-08-16T08:46:36.854Z,1
2015-08-16T08:47:37.638Z,1
2015-08-16T08:48:38.483Z,1
2015-08-16T08:49:39.611Z,1
2015-08-16T08:50:40.268Z,1
2015-08-16T08:51:41.176Z,1
2015-08-16T08:52:42.272Z,1
2015-08-16T08:53:42.978Z,1
2015-08-16T08:54:43.730Z,1
2015-08-16T08:55:44.623Z,1
2015-08-16T08:56:45.686Z,1
2015-08-16T08:57:47.532Z,1
2015-08-16T08:58:47.331Z,1
2015-08-16T08:59:48.255Z,1
2015-08-16T09:00:49.225Z,1
2015-08-16T09:01:50.368Z,1
2015-08-16T09:02:50.854Z,1
2015-08-16T09:03:52.825Z,1
2015-08-16T09:04:53.249Z,1
2015-08-16T09:05:53.578Z,1
2015-08-16T09:06:54.486Z,1
2015-08-16T09:07:55.488Z,1
2015-08-16T09:08:56.272Z,1731
2015-08-16T09:09:57.383Z,371
2015-08-16T09:10:58.058Z,66
2015-08-16T09:11:59.060Z,1
2015-08-16T09:13:00.014Z,1
2015-08-16T09:14:00.813Z,1
2015-08-16T09:15:01.690Z,1
2015-08-16T09:16:02.536Z,1
2015-08-16T09:17:03.459Z,1
2015-08-16T09:18:04.790Z,1
2015-08-16T09:19:05.229Z,1
2015-08-16T09:20:06.122Z,1
2015-08-16T09:21:06.999Z,1
2015-08-16T09:22:07.875Z,1
2015-08-16T09:23:08.721Z,1
2015-08-16T09:24:09.661Z,1
2015-08-16T09:25:10.522Z,1
2015-08-16T09:26:11.430Z,1
2015-08-16T09:27:12.339Z,1
2015-08-16T09:28:13.185Z,1
2015-08-16T09:29:14.107Z,1
2015-08-16T09:30:15.001Z,1
2015-08-16T09:31:15.924Z,1
2015-08-16T09:32:16.801Z,1
2015-08-16T09:33:17.740Z,1
2015-08-16T09:34:18.649Z,1
2015-08-16T09:35:19.494Z,1
2015-08-16T09:36:20.387Z,406
2015-08-16T09:37:21.295Z,101
2015-08-16T09:38:22.188Z,2491
2015-08-16T09:39:23.081Z,601
2015-08-16T09:40:23.973Z,201
2015-08-16T09:41:24.913Z,1
2015-08-16T09:42:25.821Z,1
2015-08-16T09:43:26.729Z,7781
2015-08-16T09:44:27.543Z,4676
2015-08-16T09:45:28.452Z,1651
2015-08-16T09:46:29.345Z,2786
2015-08-16T09:47:30.252Z,976
2015-08-16T09:48:31.255Z,1036
2015-08-16T09:49:32.116Z,5446
2015-08-16T09:50:32.914Z,9096
2015-08-16T09:51:34.901Z,6896
2015-08-16T09:52:34.732Z,3636
2015-08-16T09:53:35.624Z,501
2015-08-16T09:54:36.485Z,176
2015-08-16T09:55:37.393Z,1
2015-08-16T09:56:38.301Z,941
2015-08-16T09:57:39.194Z,276
2015-08-16T09:58:40.039Z,491
2015-08-16T09:59:40.932Z,811
2015-08-16T10:00:41.809Z,801
2015-08-16T10:01:42.827Z,236
2015-08-16T10:02:43.641Z,1491
2015-08-16T10:03:45.674Z,351
2015-08-16T10:04:47.145Z,46
2015-08-16T10:05:47.710Z,5101
2015-08-16T10:06:49.164Z,7881
2015-08-16T10:07:48.650Z,8626
2015-08-16T10:08:50.247Z,1106
2015-08-16T10:09:50.624Z,4516
2015-08-16T10:10:50.719Z,7116
2015-08-16T10:11:51.706Z,7606
2015-08-16T10:12:56.738Z,4586
2015-08-16T10:13:55.100Z,3221
2015-08-16T10:15:02.336Z,451
2015-08-16T10:15:55.230Z,771
2015-08-16T10:16:56.153Z,1086
2015-08-16T10:17:57.061Z,7361
2015-08-16T10:18:57.953Z,3781
2015-08-16T10:19:58.815Z,481
2015-08-16T10:20:59.661Z,286
2015-08-16T10:22:01.881Z,646
2015-08-16T10:23:01.477Z,376
2015-08-16T10:24:02.385Z,101
2015-08-16T10:25:03.325Z,1
2015-08-16T10:26:04.201Z,1
2015-08-16T10:27:05.062Z,1
2015-08-16T10:28:06.799Z,1
2015-08-16T10:29:07.176Z,1
2015-08-16T10:30:07.741Z,1
2015-08-16T10:31:08.570Z,1
2015-08-16T10:32:09.557Z,1
2015-08-16T10:33:10.466Z,1
2015-08-16T10:34:11.311Z,1
2015-08-16T10:35:12.203Z,1
2015-08-16T10:36:13.096Z,236
2015-08-16T10:37:15.051Z,1
2015-08-16T10:38:14.881Z,1
2015-08-16T10:39:15.805Z,1
2015-08-16T10:40:16.713Z,1
2015-08-16T10:41:17.668Z,1
2015-08-16T10:42:18.436Z,1
2015-08-16T10:43:19.329Z,1
2015-08-16T10:44:20.190Z,1
2015-08-16T10:45:21.145Z,1
2015-08-16T10:46:22.021Z,1
2015-08-16T10:47:22.946Z,1
2015-08-16T10:48:23.853Z,1
2015-08-16T10:49:24.902Z,1
2015-08-16T10:50:25.561Z,1
2015-08-16T10:51:26.484Z,1
2015-08-16T10:52:28.439Z,1
2015-08-16T10:53:29.051Z,1
2015-08-16T10:54:29.225Z,1
2015-08-16T10:55:30.070Z,1
2015-08-16T10:56:30.932Z,1
2015-08-16T10:57:31.793Z,1
2015-08-16T10:58:32.717Z,1
2015-08-16T10:59:33.610Z,1
2015-08-16T11:00:34.549Z,1
2015-08-16T11:01:35.442Z,1
2015-08-16T11:02:36.303Z,1
2015-08-16T11:03:37.179Z,1
2015-08-16T11:04:37.979Z,1
2015-08-16T11:05:38.980Z,1
2015-08-16T11:06:39.857Z,1
2015-08-16T11:07:41.812Z,1
2015-08-16T11:08:41.642Z,1
2015-08-16T11:09:42.566Z,1
2015-08-16T11:10:43.412Z,1
2015-08-16T11:11:47.211Z,1
2015-08-16T11:12:45.244Z,1
2015-08-16T11:13:46.027Z,1
2015-08-16T11:14:46.982Z,1
2015-08-16T11:15:47.875Z,1
2015-08-16T11:16:48.783Z,1
2015-08-16T11:17:50.004Z,1
2015-08-16T11:18:50.584Z,1
2015-08-16T11:19:51.430Z,1
2015-08-16T11:20:52.354Z,1
2015-08-16T11:21:53.231Z,1
2015-08-16T11:22:55.186Z,1
2015-08-16T11:23:55.062Z,1
2015-08-16T11:24:55.924Z,1
2015-08-16T11:25:56.770Z,1
2015-08-16T11:26:57.694Z,1
2015-08-16T11:27:58.586Z,1
2015-08-16T11:28:59.448Z,1
2015-08-16T11:30:00.325Z,1
2015-08-16T11:31:01.263Z,1
2015-08-16T11:32:02.172Z,1
2015-08-16T11:33:03.049Z,1
2015-08-16T11:34:03.910Z,1
2015-08-16T11:35:04.803Z,1
2015-08-16T11:36:05.695Z,1
2015-08-16T11:37:06.588Z,1
2015-08-16T11:38:08.605Z,1
2015-08-16T11:39:08.404Z,1
2015-08-16T11:40:09.313Z,1
2015-08-16T11:41:10.143Z,1
2015-08-16T11:42:12.942Z,1
2015-08-16T11:43:11.881Z,1
2015-08-16T11:44:12.851Z,11071
2015-08-16T11:45:13.713Z,29321
2015-08-16T11:46:14.621Z,24761
2015-08-16T11:51:47.631Z,2504
2015-08-16T11:52:47.867Z,434
2015-08-16T11:53:50.089Z,134
2015-08-16T11:54:52.340Z,1
2015-08-16T11:55:51.717Z,1
2015-08-16T11:56:51.375Z,496
2015-08-16T11:57:52.377Z,281
2015-08-16T11:58:53.269Z,1
2015-08-16T11:59:54.146Z,1
2015-08-16T12:00:56.133Z,501
2015-08-16T12:01:57.838Z,1306
2015-08-16T12:02:56.840Z,331
2015-08-16T12:03:57.733Z,26
2015-08-16T12:04:58.610Z,1891
2015-08-16T12:05:59.502Z,386
2015-08-16T12:07:00.395Z,81
2015-08-16T12:08:01.303Z,426
2015-08-16T12:09:03.352Z,121
2015-08-16T12:10:03.120Z,1
2015-08-16T12:11:03.981Z,1
2015-08-16T12:12:04.858Z,1
2015-08-16T12:13:05.765Z,466
2015-08-16T12:14:06.612Z,161
2015-08-16T12:15:07.614Z,961
2015-08-16T12:16:08.490Z,281
2015-08-16T12:17:09.399Z,1
2015-08-16T12:19:11.200Z,1031
2015-08-16T12:20:12.374Z,286
2015-08-16T12:21:12.938Z,1
2015-08-16T12:22:17.644Z,1
2015-08-16T12:23:15.427Z,1791
2015-08-16T12:24:20.226Z,376
2015-08-16T12:25:20.711Z,71
2015-08-16T12:26:27.869Z,101
2015-08-16T12:27:25.981Z,1
2015-08-16T12:28:21.014Z,1
2015-08-16T12:29:28.344Z,2461
2015-08-16T12:31:30.426Z,791
2015-08-16T12:32:25.819Z,246
2015-08-16T12:33:24.915Z,1
2015-08-16T12:34:26.838Z,1
2015-08-16T12:35:29.449Z,1
2015-08-16T12:36:26.842Z,1
2015-08-16T12:37:28.282Z,1
2015-08-16T12:38:28.346Z,1
2015-08-16T12:39:31.161Z,1
2015-08-16T12:40:35.724Z,1
2015-08-16T12:41:31.024Z,1
2015-08-16T12:42:32.728Z,1
2015-08-16T12:43:32.872Z,1
2015-08-16T12:44:34.499Z,1
2015-08-16T12:45:35.048Z,1
2015-08-16T12:46:35.580Z,1
2015-08-16T12:47:36.738Z,1
2015-08-16T12:48:37.303Z,1
2015-08-16T12:49:39.008Z,1
2015-08-16T12:50:41.041Z,1
2015-08-16T12:51:39.871Z,1
2015-08-16T12:52:41.639Z,1
2015-08-16T12:53:41.704Z,1
2015-08-16T12:54:43.299Z,1
2015-08-16T12:55:43.614Z,1
2015-08-16T12:56:44.319Z,1
2015-08-16T12:57:45.148Z,1
2015-08-16T12:58:46.729Z,1
2015-08-16T12:59:46.965Z,1
2015-08-16T13:00:48.046Z,1
2015-08-16T13:01:48.720Z,1
2015-08-16T13:02:49.642Z,1
2015-08-16T13:03:50.629Z,1
2015-08-16T13:04:51.646Z,1
2015-08-16T13:05:52.492Z,1
2015-08-16T13:06:55.401Z,1
2015-08-16T13:07:54.435Z,1
2015-08-16T13:08:58.921Z,1
2015-08-16T13:09:56.125Z,1
2015-08-16T13:10:56.846Z,1
2015-08-16T13:11:57.801Z,1
2015-08-16T13:12:58.834Z,1
2015-08-16T13:13:59.602Z,1
2015-08-16T13:15:02.307Z,1
2015-08-16T13:16:02.481Z,1
2015-08-16T13:17:02.202Z,1
2015-08-16T13:18:04.782Z,1
2015-08-16T13:19:04.253Z,1
2015-08-16T13:20:06.442Z,1
2015-08-16T13:21:06.100Z,1
2015-08-16T13:22:09.040Z,1
2015-08-16T13:23:09.557Z,1
2015-08-16T13:24:13.138Z,1
2015-08-16T13:25:09.653Z,1
2015-08-16T13:26:10.421Z,1
2015-08-16T13:27:11.906Z,1
2015-08-16T13:28:12.111Z,1
2015-08-16T13:29:12.848Z,1
2015-08-16T13:30:14.272Z,1
2015-08-16T13:31:14.805Z,1
2015-08-16T13:32:15.698Z,1
2015-08-16T13:33:16.543Z,1
2015-08-16T13:34:17.483Z,1
2015-08-16T13:35:18.766Z,1
2015-08-16T13:36:19.440Z,1
2015-08-16T13:37:20.864Z,1
2015-08-16T13:38:21.834Z,1
2015-08-16T13:39:24.041Z,1
2015-08-16T13:40:24.995Z,1
2015-08-16T13:41:24.528Z,1
2015-08-16T13:42:27.203Z,1
2015-08-16T13:43:25.454Z,1
2015-08-16T13:44:26.300Z,1
2015-08-16T13:45:27.692Z,1
2015-08-16T13:46:30.397Z,1
2015-08-16T13:47:30.931Z,1
2015-08-16T13:48:30.026Z,1
2015-08-16T13:49:30.778Z,1
2015-08-16T13:50:31.718Z,1
2015-08-16T13:51:32.564Z,1
2015-08-16T13:52:33.456Z,1
2015-08-16T13:53:34.443Z,1
2015-08-16T13:54:35.334Z,1
2015-08-16T13:55:36.431Z,1
2015-08-16T13:56:37.183Z,1
2015-08-16T13:57:37.919Z,1
2015-08-16T13:58:39.062Z,1
2015-08-16T13:59:39.704Z,1
2015-08-16T14:00:40.972Z,1
2015-08-16T14:01:41.490Z,1
2015-08-16T14:02:42.336Z,1
2015-08-16T14:03:45.166Z,1
2015-08-16T14:04:44.229Z,1
2015-08-16T14:05:49.967Z,1
2015-08-16T14:06:47.937Z,1
2015-08-16T14:07:46.877Z,1
2015-08-16T14:08:48.456Z,1
2015-08-16T14:09:49.145Z,1
2015-08-16T14:10:49.851Z,1
2015-08-16T14:11:50.588Z,1
2015-08-16T14:12:51.620Z,396
2015-08-16T14:13:52.389Z,96
2015-08-16T14:14:53.406Z,1
2015-08-16T14:15:54.220Z,1
2015-08-16T14:16:54.909Z,1
2015-08-16T14:17:55.772Z,1
2015-08-16T14:18:56.632Z,1
2015-08-16T14:19:58.728Z,1
2015-08-16T14:21:01.606Z,1
2015-08-16T14:22:00.233Z,1